tititudorancea.com
Station Historical Data
Daily Summary for July 25, 2018 Units:  Metric    English   Both
« Previous Day
Next Day »
Daily Weekly Monthly Yearly Custom
  High: Low: Average:
Temperature: -17.8 °C 3.5 °C 8.3 °C
Dew Point: -17.8 °C 2.5 °C 6 °C
Humidity: Humidity % 65 % 85 %
Wind Speed: 0 km/h 0 km/h 8.5 km/h
Wind Gust: 0 km/h - -
Wind:- - NW
Pressure: 0 hPa 1011.7 hPa -
Precipitation: 0.51 mm    
Historical Graphs
 
 
Ararat weather Find more about Weather in Ararat, AU


 



 


Tabular Data for July 25, 2018
Time Temperature Dew Point Pressure Wind Wind Speed Wind Gust Humidity Rainfall Rate (Hourly)
-17.8 °C -17.8 °C 0 hPa Calm     Humidity % 0 mm
00:04 7.8 °C 4.6 °C 1011.7 hPa WNW 1.6 km/h 0.2 km/h 80 % 0 mm
00:09 7.4 °C 4.4 °C 1011.7 hPa WNW 5.6 km/h 1.8 km/h 81 % 0 mm
00:14 7.1 °C 4.2 °C 1011.7 hPa WNW 3.2 km/h 0.3 km/h 82 % 0 mm
00:19 6.9 °C 4.2 °C 1011.7 hPa WNW 1.9 km/h   83 % 0 mm
00:24 6.6 °C 4.1 °C 1011.7 hPa Calm     84 % 0 mm
00:29 6.5 °C 4.2 °C 1011.7 hPa Calm     85 % 0 mm
00:34 6.1 °C 3.7 °C 1011.7 hPa WNW 6.4 km/h 6.1 km/h 85 % 0 mm
00:39 6 °C 4 °C 1011.7 hPa North 3.7 km/h 1.9 km/h 87 % 0 mm
00:44 5.7 °C 3.6 °C 1011.7 hPa WNW 5.6 km/h 3.9 km/h 86 % 0 mm
00:49 5.6 °C 3.6 °C 1011.7 hPa North 5.6 km/h 5 km/h 87 % 0 mm
00:54 5.7 °C 3.9 °C 1011.7 hPa North 4.8 km/h 3.1 km/h 88 % 0 mm
00:58 5.7 °C 3.9 °C 1011.7 hPa WNW 1.9 km/h   88 % 0 mm
07:49 3.5 °C 2.5 °C 1015.5 hPa WNW 5.6 km/h 5.5 km/h 93 % 0 mm
07:54 3.5 °C 2.5 °C 1015.5 hPa WNW 7.4 km/h 4.3 km/h 93 % 0 mm
07:59 3.6 °C 2.7 °C 1015.5 hPa North 5.6 km/h 3.7 km/h 94 % 0 mm
08:04 3.6 °C 2.6 °C 1015.8 hPa WNW 5.6 km/h 2.7 km/h 93 % 0 mm
08:09 3.7 °C 2.8 °C 1015.5 hPa North 5.6 km/h 3.1 km/h 94 % 0 mm
08:14 3.7 °C 2.7 °C 1015.8 hPa North 1.9 km/h 0.2 km/h 93 % 0 mm
08:19 3.7 °C 2.7 °C 1015.8 hPa WNW 3.7 km/h 2.1 km/h 93 % 0 mm
08:24 3.7 °C 2.8 °C 1015.8 hPa WNW 5.6 km/h 1.4 km/h 94 % 0 mm
08:29 3.8 °C 2.9 °C 1015.8 hPa WNW 7.4 km/h 5.5 km/h 94 % 0 mm
08:34 4.1 °C 3.2 °C 1016.1 hPa NW 9.3 km/h 6.1 km/h 94 % 0 mm
08:39 4.3 °C 3.4 °C 1016.1 hPa NW 5.6 km/h 5.1 km/h 94 % 0 mm
08:44 4.6 °C 3.8 °C 1016.1 hPa North 5.6 km/h 5.6 km/h 95 % 0 mm
08:49 4.9 °C 4.2 °C 1016.1 hPa NW 11.1 km/h 6.3 km/h 95 % 0 mm
08:54 5.2 °C 4.5 °C 1016.1 hPa NNW 18.5 km/h 7.2 km/h 95 % 0 mm
08:59 5.3 °C 4.4 °C 1016.1 hPa NNW 8 km/h 5.6 km/h 94 % 0 mm
09:04 5.3 °C 4.4 °C 1016.1 hPa NNW 11.1 km/h 5.8 km/h 94 % 0 mm
09:09 5.2 °C 4.3 °C 1016.1 hPa NNW 13 km/h 8.5 km/h 94 % 0 mm
09:14 5.2 °C 4.3 °C 1016.1 hPa NNW 11.1 km/h 5.6 km/h 94 % 0 mm
09:19 5.3 °C 4.4 °C 1016.1 hPa NNW 8 km/h 6 km/h 94 % 0 mm
09:24 5.3 °C 4.4 °C 1016.5 hPa NNW 9.3 km/h 6.8 km/h 94 % 0 mm
09:29 5.4 °C 4.7 °C 1016.1 hPa North 16.7 km/h 11.4 km/h 95 % 0 mm
09:34 5.6 °C 4.9 °C 1016.1 hPa North 14.8 km/h 10.3 km/h 95 % 0 mm
09:39 5.7 °C 5 °C 1016.1 hPa North 11.1 km/h 6.9 km/h 95 % 0 mm
09:44 5.7 °C 4.8 °C 1016.1 hPa North 7.4 km/h 6.8 km/h 94 % 0 mm
09:49 5.8 °C 5.1 °C 1016.1 hPa NNW 11.1 km/h 7.1 km/h 95 % 0 mm
09:54 6 °C 5.3 °C 1016.5 hPa North 13 km/h 10.5 km/h 95 % 0 mm
09:59 6.2 °C 5.4 °C 1016.5 hPa North 18.5 km/h 9.2 km/h 95 % 0 mm
10:04 6.3 °C 5.6 °C 1016.5 hPa North 14.5 km/h 9.5 km/h 95 % 0 mm
10:09 6.3 °C 5.6 °C 1016.5 hPa NNE 16.7 km/h 9 km/h 95 % 0 mm
10:14 6.6 °C 5.8 °C 1016.1 hPa NNE 13 km/h 9 km/h 95 % 0 mm
10:19 6.8 °C 6.1 °C 1016.5 hPa North 11.1 km/h 8 km/h 95 % 0 mm
10:24 7.2 °C 6.4 °C 1016.5 hPa North 13 km/h 8.2 km/h 95 % 0 mm
10:29 7.3 °C 6.6 °C 1016.5 hPa North 7.4 km/h 6.1 km/h 95 % 0 mm
10:34 7.6 °C 6.9 °C 1016.5 hPa North 9.3 km/h 7.6 km/h 95 % 0 mm
10:39 7.8 °C 7 °C 1016.5 hPa North 14.5 km/h 12.1 km/h 95 % 0 mm
10:44 7.9 °C 7.1 °C 1016.5 hPa North 11.3 km/h 7.9 km/h 94 % 0 mm
10:49 8.3 °C 7.4 °C 1016.5 hPa North 8 km/h 6.1 km/h 94 % 0 mm
10:54 8.4 °C 7.2 °C 1016.5 hPa North 11.1 km/h 8.5 km/h 92 % 0 mm
10:59 8.6 °C 7.3 °C 1016.5 hPa North 9.3 km/h 8.9 km/h 92 % 0 mm
11:04 8.8 °C 7.4 °C 1016.5 hPa North 13 km/h 11.7 km/h 91 % 0 mm
11:09 9.2 °C 7.7 °C 1016.5 hPa North 9.7 km/h 6.1 km/h 90 % 0 mm
11:14 9.4 °C 7.7 °C 1016.5 hPa North 9.3 km/h 6.6 km/h 89 % 0 mm
11:19 9.6 °C 7.6 °C 1016.5 hPa North 17.7 km/h 11.1 km/h 87 % 0 mm
11:24 9.7 °C 7.6 °C 1016.5 hPa North 13 km/h 6.4 km/h 87 % 0 mm
11:29 9.9 °C 7.7 °C 1016.5 hPa North 11.1 km/h 10.5 km/h 86 % 0 mm
11:34 10.4 °C 8.2 °C 1016.1 hPa North 11.3 km/h 7.2 km/h 86 % 0 mm
11:39 10.7 °C 7.9 °C 1016.1 hPa North 14.5 km/h 12.7 km/h 83 % 0 mm
11:44 10.4 °C 7.5 °C 1016.1 hPa North 11.1 km/h 8.7 km/h 82 % 0 mm
11:49 10.2 °C 7.2 °C 1016.1 hPa North 11.3 km/h 9.7 km/h 82 % 0 mm
11:54 10 °C 7.4 °C 1016.1 hPa North 14.8 km/h 9.5 km/h 84 % 0 mm
11:59 10.1 °C 7.5 °C 1016.1 hPa NNW 16.7 km/h 10 km/h 84 % 0 mm
12:04 10.4 °C 7.8 °C 1016.1 hPa North 16.7 km/h 9.3 km/h 84 % 0 mm
12:09 10.4 °C 7.4 °C 1015.8 hPa North 16.7 km/h 6.3 km/h 82 % 0 mm
12:14 10.1 °C 7.3 °C 1015.8 hPa North 13 km/h 8.9 km/h 83 % 0 mm
12:19 10 °C 7.4 °C 1015.8 hPa North 14.8 km/h 9.8 km/h 84 % 0.25 mm
12:24 9.9 °C 7.4 °C 1015.8 hPa North 18.5 km/h 10.9 km/h 84 % 0.25 mm
12:29 10 °C 7.4 °C 1015.8 hPa North 13 km/h 7.6 km/h 84 % 0.25 mm
12:34 10.1 °C 7.5 °C 1015.8 hPa North 13 km/h 13 km/h 84 % 0.25 mm
12:39 10.3 °C 7.7 °C 1015.5 hPa North 11.1 km/h 7.6 km/h 84 % 0.25 mm
12:44 10.8 °C 8.2 °C 1015.5 hPa North 9.3 km/h 6.6 km/h 84 % 0.25 mm
12:49 10.9 °C 7.8 °C 1015.5 hPa North 9.3 km/h 6.1 km/h 81 % 0.25 mm
12:54 11 °C 7.1 °C 1015.5 hPa NNW 18.5 km/h 8.7 km/h 77 % 0.25 mm
12:59 11.2 °C 7.2 °C 1015.5 hPa NNW 13 km/h 8.9 km/h 76 % 0.25 mm
13:04 11.3 °C 6.9 °C 1015.5 hPa North 14.8 km/h 11.6 km/h 74 % 0.25 mm
13:09 11.4 °C 6.9 °C 1015.1 hPa NW 11.3 km/h 11.6 km/h 74 % 0.25 mm
13:14 11.5 °C 6.8 °C 1015.1 hPa NW 14.5 km/h 13.2 km/h 73 % 0.25 mm
13:19 11.7 °C 6.8 °C 1015.1 hPa NW 16.1 km/h 14.3 km/h 72 % 0 mm
13:24 11.6 °C 6.3 °C 1015.1 hPa North 13 km/h 8.4 km/h 70 % 0 mm
13:29 11.7 °C 6.4 °C 1015.1 hPa NW 14.8 km/h 12.4 km/h 70 % 0 mm
13:34 11.7 °C 6.4 °C 1015.1 hPa North 11.1 km/h 8 km/h 70 % 0 mm
13:39 11.7 °C 6.4 °C 1015.1 hPa NW 13 km/h 7.4 km/h 70 % 0 mm
13:44 11.7 °C 6 °C 1015.1 hPa WNW 11.1 km/h 11.9 km/h 68 % 0 mm
13:49 11.7 °C 5.7 °C 1015.1 hPa WNW 16.7 km/h 10.1 km/h 67 % 0 mm
13:54 11.6 °C 5.9 °C 1015.1 hPa WNW 20.9 km/h 13 km/h 68 % 0 mm
13:59 11.4 °C 5.7 °C 1015.1 hPa North 16.7 km/h 12.9 km/h 68 % 0 mm
14:04 11.4 °C 5.7 °C 1015.1 hPa WNW 14.8 km/h 11.1 km/h 68 % 0 mm
14:09 11.4 °C 5.9 °C 1015.1 hPa NW 13 km/h 6.4 km/h 69 % 0 mm
14:14 11.4 °C 6.1 °C 1015.1 hPa North 13 km/h 11.4 km/h 70 % 0 mm
14:19 11.5 °C 6.2 °C 1015.1 hPa WNW 11.1 km/h 7.6 km/h 70 % 0 mm
14:24 11.8 °C 6.5 °C 1015.1 hPa WNW 16.7 km/h 10.1 km/h 70 % 0 mm
14:29 11.9 °C 6.8 °C 1015.1 hPa WNW 9.3 km/h 7.2 km/h 71 % 0 mm
14:34 12.5 °C 6.8 °C 1015.1 hPa WNW 11.3 km/h 9.5 km/h 68 % 0 mm
14:39 12.7 °C 6.7 °C 1014.8 hPa WNW 14.8 km/h 9.3 km/h 67 % 0 mm
14:44 12.7 °C 6.3 °C 1014.8 hPa NW 16.1 km/h 10.6 km/h 65 % 0 mm
14:49 12.3 °C 6.3 °C 1014.8 hPa NW 9.3 km/h 5.8 km/h 67 % 0 mm
14:54 11.9 °C 6.2 °C 1014.8 hPa WNW 18.5 km/h 7.6 km/h 68 % 0 mm
14:59 11.7 °C 6.4 °C 1014.8 hPa North 13 km/h 8.7 km/h 70 % 0 mm
15:04 11.6 °C 6.3 °C 1014.8 hPa WNW 14.5 km/h 9.8 km/h 70 % 0 mm
15:09 11.6 °C 6.3 °C 1014.8 hPa WNW 7.4 km/h 4.7 km/h 70 % 0 mm
15:14 11.6 °C 6.3 °C 1014.8 hPa North 16.7 km/h 12.9 km/h 70 % 0 mm
15:19 11.4 °C 6.6 °C 1014.8 hPa North 7.4 km/h 8 km/h 72 % 0 mm
15:24 11.3 °C 6.4 °C 1014.8 hPa WNW 9.3 km/h 10.3 km/h 72 % 0 mm
15:29 11.2 °C 6.6 °C 1014.8 hPa NW 16.7 km/h 13.4 km/h 73 % 0 mm
15:34 11.2 °C 6.7 °C 1014.8 hPa NW 16.1 km/h 8.7 km/h 74 % 0 mm
15:39 11.2 °C 6.7 °C 1015.1 hPa North 13 km/h 11.3 km/h 74 % 0 mm
15:44 11.2 °C 6.7 °C 1015.1 hPa NW 16.7 km/h 6.3 km/h 74 % 0 mm
15:49 11.2 °C 6.8 °C 1015.1 hPa North 8 km/h 4.2 km/h 74 % 0 mm
15:54 11.4 °C 6.7 °C 1015.1 hPa NW 9.3 km/h 6.9 km/h 73 % 0 mm
15:59 11.5 °C 6.6 °C 1015.1 hPa NW 11.1 km/h 8.7 km/h 72 % 0 mm
16:04 11.6 °C 6.7 °C 1015.1 hPa NW 13 km/h 9.7 km/h 72 % 0 mm
16:09 11.5 °C 6.6 °C 1015.1 hPa NW 9.7 km/h 6 km/h 72 % 0 mm
16:14 11.5 °C 6.6 °C 1015.1 hPa NW 14.8 km/h 6.9 km/h 72 % 0 mm
16:19 11.4 °C 6.7 °C 1015.1 hPa NW 13 km/h 9.2 km/h 73 % 0 mm
16:24 11.3 °C 6.9 °C 1015.5 hPa NW 9.7 km/h 5.5 km/h 74 % 0 mm
16:29 11.2 °C 6.8 °C 1015.5 hPa NW 11.3 km/h 8.4 km/h 74 % 0 mm
16:34 11.1 °C 6.8 °C 1015.5 hPa NW 9.3 km/h 9.2 km/h 75 % 0 mm
16:39 11.1 °C 6.8 °C 1015.5 hPa NW 11.1 km/h 8.5 km/h 75 % 0 mm
16:44 11.2 °C 7.1 °C 1015.5 hPa North 13 km/h 5.8 km/h 76 % 0 mm
16:49 10.9 °C 7.1 °C 1015.5 hPa NW 11.1 km/h 6 km/h 77 % 0 mm
16:54 10.8 °C 7.1 °C 1015.5 hPa NW 13 km/h 7.2 km/h 78 % 0 mm
16:59 10.6 °C 7.1 °C 1015.5 hPa NW 9.3 km/h 8.4 km/h 79 % 0 mm
17:04 10.5 °C 7.2 °C 1015.5 hPa NW 9.3 km/h 4.8 km/h 80 % 0 mm
17:09 10.4 °C 7.3 °C 1015.5 hPa North 6.4 km/h 3.5 km/h 81 % 0 mm
17:14 10.4 °C 7.3 °C 1015.5 hPa NW 9.3 km/h 6 km/h 81 % 0 mm
17:19 10.4 °C 7.4 °C 1015.5 hPa NW 5.6 km/h 3.5 km/h 82 % 0 mm
17:24 10.3 °C 7.3 °C 1015.5 hPa NW 5.6 km/h 5.5 km/h 82 % 0 mm
17:29 10.2 °C 7.4 °C 1015.5 hPa NW 6.4 km/h 3.5 km/h 83 % 0 mm
17:34 10.2 °C 7.4 °C 1015.5 hPa NW 5.6 km/h 1.4 km/h 83 % 0 mm
17:39 10.1 °C 7.3 °C 1015.5 hPa NW 5.6 km/h 1.8 km/h 83 % 0 mm
17:44 10.1 °C 7.5 °C 1015.5 hPa NW 5.6 km/h 3.9 km/h 84 % 0 mm
17:49 10 °C 7.4 °C 1015.5 hPa NW 5.6 km/h 4.3 km/h 84 % 0 mm
17:54 9.9 °C 7.4 °C 1015.5 hPa NW 3.7 km/h 2.4 km/h 84 % 0 mm
17:59 9.9 °C 7.5 °C 1015.8 hPa North 5.6 km/h 3.1 km/h 85 % 0 mm
18:04 9.9 °C 7.5 °C 1015.8 hPa NW 5.6 km/h 2.7 km/h 85 % 0 mm
18:09 9.9 °C 7.7 °C 1015.8 hPa NW 6.4 km/h 6.1 km/h 86 % 0 mm
18:14 9.8 °C 7.6 °C 1015.8 hPa NW 5.6 km/h 6.3 km/h 86 % 0 mm
18:19 9.7 °C 7.5 °C 1015.8 hPa NW 5.6 km/h 2.3 km/h 86 % 0 mm
18:24 9.7 °C 7.6 °C 1015.8 hPa NW 6.4 km/h 3.9 km/h 87 % 0 mm
18:29 9.6 °C 7.7 °C 1015.8 hPa NW 5.6 km/h 3.2 km/h 88 % 0 mm
18:34 9.6 °C 7.7 °C 1015.8 hPa North 5.6 km/h 4.7 km/h 88 % 0 mm
18:39 9.5 °C 7.8 °C 1015.8 hPa North 7.4 km/h 3.9 km/h 89 % 0 mm
18:44 9.4 °C 7.7 °C 1015.8 hPa North 5.6 km/h 4.2 km/h 89 % 0 mm
18:49 9.4 °C 7.7 °C 1015.8 hPa NW 5.6 km/h 1.6 km/h 89 % 0 mm
18:54 9.3 °C 7.7 °C 1015.8 hPa NW 5.6 km/h 4.3 km/h 90 % 0 mm
18:59 9.2 °C 7.7 °C 1016.1 hPa North 5.6 km/h 2.3 km/h 90 % 0 mm
19:04 9.2 °C 7.6 °C 1016.1 hPa North 5.6 km/h 2.6 km/h 90 % 0 mm
19:09 9.1 °C 7.7 °C 1016.1 hPa North 8 km/h 4.7 km/h 91 % 0 mm
19:14 9.1 °C 7.7 °C 1016.1 hPa North 8 km/h 4.5 km/h 91 % 0 mm
19:19 9.1 °C 7.7 °C 1016.1 hPa North 7.4 km/h 4.7 km/h 91 % 0 mm
19:24 9.1 °C 7.7 °C 1016.1 hPa North 7.4 km/h 3.5 km/h 91 % 0 mm
19:29 9.1 °C 7.7 °C 1016.1 hPa North 5.6 km/h 2.4 km/h 91 % 0 mm
19:34 9.1 °C 7.8 °C 1016.5 hPa North 5.6 km/h 4.3 km/h 92 % 0 mm
19:39 9 °C 7.8 °C 1016.5 hPa NW 9.3 km/h 3.7 km/h 92 % 0 mm
19:44 9 °C 7.8 °C 1016.5 hPa North 9.3 km/h 6.9 km/h 92 % 0 mm
19:49 9 °C 7.8 °C 1016.5 hPa North 9.3 km/h 7.9 km/h 92 % 0 mm
19:54 9 °C 7.8 °C 1016.5 hPa NW 11.1 km/h 10.5 km/h 92 % 0 mm
19:59 9.1 °C 7.8 °C 1016.5 hPa NW 11.1 km/h 8.4 km/h 92 % 0 mm
20:04 9.1 °C 7.9 °C 1016.8 hPa North 11.1 km/h 5.3 km/h 92 % 0 mm
20:09 9.1 °C 7.9 °C 1016.8 hPa NW 5.6 km/h 4.3 km/h 92 % 0 mm
20:14 9.2 °C 7.9 °C 1016.8 hPa North 5.6 km/h 7.1 km/h 92 % 0 mm
20:19 9.2 °C 7.9 °C 1016.8 hPa North 9.3 km/h 5 km/h 92 % 0 mm
20:24 9.1 °C 7.9 °C 1016.8 hPa North 8 km/h 6 km/h 92 % 0 mm
20:29 9.1 °C 7.9 °C 1016.8 hPa North 5.6 km/h 2.1 km/h 92 % 0 mm
20:34 9 °C 7.8 °C 1016.8 hPa Calm     92 % 0 mm
20:39 8.9 °C 7.7 °C 1016.8 hPa North 3.7 km/h 2.6 km/h 92 % 0 mm
20:44 8.8 °C 7.6 °C 1017.2 hPa North 5.6 km/h 5.3 km/h 92 % 0 mm
20:49 8.6 °C 7.4 °C 1017.2 hPa North 5.6 km/h 4.5 km/h 92 % 0 mm
20:54 8.4 °C 7.2 °C 1017.2 hPa NW 3.7 km/h 1.3 km/h 92 % 0 mm
20:59 8.3 °C 7.1 °C 1017.2 hPa NW 3.7 km/h 3.2 km/h 92 % 0.25 mm
21:04 8.2 °C 7 °C 1017.2 hPa Calm     92 % 0.25 mm
21:09 8.1 °C 6.9 °C 1017.2 hPa Calm     92 % 0.25 mm
21:14 8 °C 6.8 °C 1017.2 hPa Calm     92 % 0.25 mm
21:19 7.9 °C 6.7 °C 1017.2 hPa Calm     92 % 0.25 mm
21:24 7.3 °C 5.9 °C 1017.5 hPa NW 4.8 km/h 1.6 km/h 91 % 0.25 mm
21:29 7 °C 5.8 °C 1017.5 hPa North 1.9 km/h   92 % 0.25 mm
21:34 6.8 °C 5.6 °C 1017.5 hPa Calm     92 % 0.25 mm
21:39 6.9 °C 5.8 °C 1017.5 hPa Calm     93 % 0.25 mm
21:44 7.1 °C 6.1 °C 1017.5 hPa North 3.7 km/h 1.3 km/h 93 % 0.25 mm
21:49 7.1 °C 6.1 °C 1017.5 hPa NW 5.6 km/h 1.9 km/h 93 % 0.25 mm
21:54 6.9 °C 5.9 °C 1017.5 hPa North 4.8 km/h 3.4 km/h 93 % 0.25 mm
21:59 6.8 °C 5.8 °C 1017.5 hPa NW 5.6 km/h 0.3 km/h 93 % 0 mm
22:04 6.4 °C 5.3 °C 1017.5 hPa North 5.6 km/h 1.9 km/h 93 % 0 mm
22:09 6.2 °C 4.9 °C 1017.5 hPa NW 5.6 km/h 4.3 km/h 92 % 0 mm
22:14 6.2 °C 5.2 °C 1017.5 hPa North 5.6 km/h 3.1 km/h 93 % 0 mm
22:19 6.1 °C 5 °C 1017.5 hPa NW 5.6 km/h 2.9 km/h 93 % 0 mm
22:24 6 °C 4.9 °C 1017.8 hPa North 5.6 km/h 1.6 km/h 93 % 0 mm
22:29 6 °C 5.1 °C 1017.8 hPa NW 3.7 km/h 2.3 km/h 94 % 0 mm
22:34 5.8 °C 4.8 °C 1017.5 hPa Calm     93 % 0 mm
22:39 5.8 °C 4.9 °C 1017.5 hPa Calm     94 % 0 mm
22:44 5.6 °C 4.5 °C 1017.5 hPa North 1.6 km/h 1.1 km/h 93 % 0 mm
22:49 5.4 °C 4.5 °C 1017.5 hPa Calm     94 % 0 mm
22:54 5.3 °C 4.3 °C 1017.5 hPa Calm     93 % 0 mm
22:59 5.2 °C 4.3 °C 1017.5 hPa NW 5.6 km/h 2.3 km/h 94 % 0 mm
23:04 5.1 °C 4 °C 1017.5 hPa Calm     93 % 0 mm
23:09 5 °C 4.1 °C 1017.5 hPa North 3.7 km/h 0.5 km/h 94 % 0 mm
23:14 4.9 °C 4.1 °C 1017.5 hPa North 3.7 km/h   94 % 0 mm
23:19 4.8 °C 3.9 °C 1017.5 hPa Calm     94 % 0 mm
23:24 4.7 °C 3.8 °C 1017.5 hPa Calm     94 % 0 mm
23:29 4.6 °C 3.7 °C 1017.5 hPa Calm   0.2 km/h 94 % 0 mm
23:34 4.3 °C 3.2 °C 1017.5 hPa North 1.9 km/h 1.8 km/h 93 % 0 mm
23:39 4.1 °C 3.2 °C 1017.5 hPa NW 3.7 km/h 2.6 km/h 94 % 0 mm
23:44 4 °C 3.1 °C 1017.5 hPa NW 1.9 km/h   94 % 0 mm
23:49 4 °C 3.1 °C 1017.5 hPa Calm     94 % 0 mm
23:54 4 °C 3.1 °C 1017.5 hPa Calm     94 % 0 mm
23:59 3.9 °C 3.1 °C 1017.5 hPa Calm     94 % 0 mm
Ararat Weather
Compliments of Weather Underground - 1.75 mb
Click here to send mail.


ABOUT

Live weather data from Ararat, Victoria, Australia, 3377
Data uploaded from Cumulus every 5 minutes to Weather Underground.
This site then downloads the raw data for formatting and display.
Metric and imperial data can be displayed. Graphs and historical data available.
Includes Sun and Moon times and rain image live from BOM.

Check out Ararat Weather on Facebook, Twitter and Google +

Help support ongoing costs by checking out the ads





Follow @AraratWeather